Time;durP1;ratioP1;P1;durP2;ratioP2;P2;SDS_P1;SDS_P2;PMS_P1;PMS_P2;Temp;Humidity;BMP_temperature;BMP_pressure;BME280_temperature;BME280_humidity;BME280_pressure;Samples;Min_cycle;Max_cycle;Signal;HPM_P1;HPM_P2
2021/08/29 00:01:00;;;;;;;;;6.75;4.00;;;;;24.03;44.45;101847.41;5095171;27;52027;-63
2021/08/29 00:03:26;;;;;;;;;6.75;6.25;;;;;24.01;44.40;101841.25;5087465;27;51177;-62
2021/08/29 00:05:52;;;;;;;;;6.75;6.75;;;;;24.00;44.59;101851.47;5086271;27;51155;-62
2021/08/29 00:08:18;;;;;;;;;6.75;6.75;;;;;23.98;44.44;101836.16;5075608;27;51159;-62
2021/08/29 00:10:43;;;;;;;;;5.75;4.75;;;;;23.96;44.21;101833.59;5085980;27;51381;-63
2021/08/29 00:13:08;;;;;;;;;6.25;6.25;;;;;23.95;44.65;101837.44;5089130;27;51023;-63
2021/08/29 00:15:34;;;;;;;;;6.75;6.00;;;;;23.93;44.16;101831.28;5088486;27;51367;-62
2021/08/29 00:17:59;;;;;;;;;7.00;6.75;;;;;23.91;44.74;101822.34;5075771;27;51116;-62
2021/08/29 00:20:24;;;;;;;;;6.00;5.75;;;;;23.90;44.71;101835.34;5071628;27;53868;-62
2021/08/29 00:22:50;;;;;;;;;10.00;6.00;;;;;23.89;44.74;101832.81;5087788;27;51091;-62
2021/08/29 00:25:15;;;;;;;;;7.00;6.00;;;;;23.87;44.61;101832.19;5084930;27;52670;-62
2021/08/29 00:27:40;;;;;;;;;6.25;5.00;;;;;23.85;44.49;101826.00;5079540;27;51065;-62
2021/08/29 00:30:06;;;;;;;;;7.50;5.50;;;;;23.85;44.73;101826.84;5088085;27;51106;-62
2021/08/29 00:32:31;;;;;;;;;7.00;7.00;;;;;23.84;44.81;101818.78;5094538;27;51125;-63
2021/08/29 00:34:57;;;;;;;;;6.75;6.50;;;;;23.82;44.07;101821.75;5092053;27;51167;-62
2021/08/29 00:37:22;;;;;;;;;4.50;4.50;;;;;23.81;44.39;101824.75;5093482;27;51278;-60
2021/08/29 00:39:47;;;;;;;;;7.25;6.00;;;;;23.80;44.75;101823.06;5093743;27;51074;-61
2021/08/29 00:42:13;;;;;;;;;4.75;4.00;;;;;23.78;44.57;101825.22;5075524;27;51176;-61
2021/08/29 00:44:38;;;;;;;;;7.00;7.00;;;;;23.78;44.84;101825.22;5088590;27;51084;-61
2021/08/29 00:47:07;;;;;;;;;7.00;7.00;;;;;23.76;44.57;101827.31;5078512;27;51215;-62
2021/08/29 00:49:40;;;;;;;;;4.25;4.25;;;;;23.75;44.56;101815.41;5075047;27;51320;-62
2021/08/29 00:52:07;;;;;;;;;8.50;7.25;;;;;23.73;44.67;101817.56;5088594;27;50969;-62
2021/08/29 00:54:33;;;;;;;;;8.00;7.50;;;;;23.73;44.72;101825.00;5089755;27;51157;-62
2021/08/29 00:57:06;;;;;;;;;9.00;6.00;;;;;23.71;44.87;101819.69;5079237;27;51004;-62
2021/08/29 00:59:33;;;;;;;;;7.00;7.00;;;;;23.70;44.82;101814.38;5074666;27;51176;-62
2021/08/29 01:02:13;;;;;;;;;8.75;7.75;;;;;23.68;44.85;101811.84;5086835;27;51128;-62
2021/08/29 01:05:02;;;;;;;;;9.25;4.75;;;;;23.65;45.05;101809.50;5088044;27;51512;-62
2021/08/29 01:07:36;;;;;;;;;8.50;8.50;;;;;23.66;44.60;101808.47;5079229;27;51073;-62
2021/08/29 01:10:08;;;;;;;;;14.25;11.25;;;;;23.65;44.63;101816.94;5090021;27;52136;-61
2021/08/29 01:12:34;;;;;;;;;10.25;9.00;;;;;23.63;44.89;101811.66;5096046;27;51134;-61
2021/08/29 01:15:03;;;;;;;;;11.75;10.75;;;;;23.63;45.00;101816.34;5079919;27;51182;-61
2021/08/29 01:17:31;;;;;;;;;10.75;9.25;;;;;23.61;45.17;101805.50;5082654;27;51309;-61
2021/08/29 01:20:25;;;;;;;;;10.00;9.00;;;;;23.60;44.88;101812.94;5097510;27;51086;-61
2021/08/29 01:22:52;;;;;;;;;10.75;8.00;;;;;23.59;45.04;101816.78;5097929;27;51509;-61
2021/08/29 01:25:24;;;;;;;;;12.75;8.00;;;;;23.58;44.92;101817.84;5078512;27;51184;-61
2021/08/29 01:28:23;;;;;;;;;9.75;7.75;;;;;23.56;44.82;101811.66;5087187;27;51372;-61
2021/08/29 01:30:49;;;;;;;;;8.00;7.25;;;;;23.55;45.12;101815.50;5050041;27;52927;-61
2021/08/29 01:33:14;;;;;;;;;6.75;6.50;;;;;23.55;45.12;101812.75;5077545;27;51499;-62
2021/08/29 01:35:41;;;;;;;;;9.25;8.00;;;;;23.54;45.26;101812.94;5088861;27;51292;-61
2021/08/29 01:38:07;;;;;;;;;14.00;8.00;;;;;23.53;44.98;101812.09;5097417;27;51270;-61
2021/08/29 01:40:34;;;;;;;;;8.50;8.00;;;;;23.52;45.14;101815.91;5088469;27;50927;-61
2021/08/29 01:43:00;;;;;;;;;7.00;6.00;;;;;23.53;45.45;101811.22;5086483;27;51185;-62
2021/08/29 01:45:27;;;;;;;;;9.00;6.75;;;;;23.51;44.95;101814.22;5087377;27;51073;-61
2021/08/29 01:47:55;;;;;;;;;9.50;9.00;;;;;23.51;44.93;101819.75;5077074;27;51069;-64
2021/08/29 01:50:20;;;;;;;;;11.50;7.75;;;;;23.50;44.95;101811.69;5076228;27;52889;-61
2021/08/29 01:52:46;;;;;;;;;7.50;6.75;;;;;23.49;44.98;101807.22;5078751;27;51289;-61
2021/08/29 01:55:11;;;;;;;;;10.50;9.25;;;;;23.47;45.15;101812.97;5077232;27;51403;-60
2021/08/29 01:57:36;;;;;;;;;8.00;6.00;;;;;23.47;44.90;101812.97;5096723;27;50936;-60
2021/08/29 02:00:03;;;;;;;;;8.50;6.00;;;;;23.46;45.30;101813.19;5083787;27;54636;-61
2021/08/29 02:02:29;;;;;;;;;6.00;6.00;;;;;23.45;45.13;101814.28;5077447;27;50978;-61
2021/08/29 02:04:54;;;;;;;;;9.25;7.00;;;;;23.45;44.99;101811.50;5078357;27;51316;-61
2021/08/29 02:07:33;;;;;;;;;8.25;7.75;;;;;23.44;45.25;101815.31;5093413;27;51180;-61
2021/08/29 02:10:11;;;;;;;;;8.75;7.75;;;;;23.43;45.25;101819.16;5079217;27;51797;-61
2021/08/29 02:13:02;;;;;;;;;7.75;6.75;;;;;23.42;45.02;101815.53;5090905;27;51152;-61
2021/08/29 02:15:38;;;;;;;;;9.75;7.00;;;;;23.42;45.03;101823.81;5090861;27;51112;-61
2021/08/29 02:18:07;;;;;;;;;4.50;4.50;;;;;23.40;45.25;101825.13;5097560;27;51081;-61
2021/08/29 02:20:33;;;;;;;;;8.75;6.00;;;;;23.39;45.55;101820.66;5096029;27;50966;-61
2021/08/29 02:23:00;;;;;;;;;6.50;6.00;;;;;23.38;45.57;101819.81;5097215;27;51162;-62
2021/08/29 02:25:25;;;;;;;;;8.00;6.50;;;;;23.38;45.20;101822.59;5096025;27;52048;-61
2021/08/29 02:27:51;;;;;;;;;8.00;4.75;;;;;23.36;45.30;101827.50;5073692;27;51070;-62
2021/08/29 02:30:17;;;;;;;;;6.25;4.75;;;;;23.37;45.18;101831.94;5078468;27;52010;-61
2021/08/29 02:32:44;;;;;;;;;14.25;9.75;;;;;23.36;45.73;101830.25;5094922;27;51040;-61
2021/08/29 02:35:10;;;;;;;;;5.00;5.00;;;;;23.36;45.27;101827.50;5080792;27;51017;-60
2021/08/29 02:37:38;;;;;;;;;6.75;6.50;;;;;23.35;45.33;101824.94;5089091;27;51172;-61
2021/08/29 02:40:05;;;;;;;;;7.75;7.00;;;;;23.35;45.76;101830.47;5076751;27;51801;-61
2021/08/29 02:42:31;;;;;;;;;7.25;5.50;;;;;23.33;45.28;101839.81;5078107;27;51351;-62
2021/08/29 02:44:59;;;;;;;;;9.25;6.25;;;;;23.33;45.39;101836.19;5082355;27;51152;-61
2021/08/29 02:47:25;;;;;;;;;8.25;6.75;;;;;23.33;45.72;101833.44;5096263;27;51269;-62
2021/08/29 02:49:52;;;;;;;;;11.25;6.50;;;;;23.32;45.44;101828.97;5096472;27;51116;-61
2021/08/29 02:52:18;;;;;;;;;7.50;7.00;;;;;23.33;45.66;101825.13;5096647;27;51186;-61
2021/08/29 02:54:45;;;;;;;;;7.50;7.50;;;;;23.31;45.68;101824.50;5097364;27;50938;-62
2021/08/29 02:57:14;;;;;;;;;7.25;7.25;;;;;23.30;45.83;101822.81;5096740;27;51340;-61
2021/08/29 02:59:40;;;;;;;;;9.00;6.50;;;;;23.30;45.61;101822.81;5096588;27;50998;-62
2021/08/29 03:02:07;;;;;;;;;8.50;5.00;;;;;23.29;45.47;101826.66;5096362;27;50956;-61
2021/08/29 03:04:33;;;;;;;;;6.75;6.75;;;;;23.28;45.47;101825.81;5096719;27;51098;-62
2021/08/29 03:06:58;;;;;;;;;10.50;8.25;;;;;23.28;45.16;101824.97;5096597;27;51178;-61
2021/08/29 03:09:24;;;;;;;;;7.25;5.50;;;;;23.27;46.00;101823.25;5096988;27;52073;-62
2021/08/29 03:11:50;;;;;;;;;9.75;9.00;;;;;23.28;45.93;101822.19;5096074;27;51089;-61
2021/08/29 03:14:15;;;;;;;;;5.75;5.75;;;;;23.26;45.74;101818.81;5096557;27;51153;-61
2021/08/29 03:16:40;;;;;;;;;10.50;7.25;;;;;23.25;45.92;101819.88;5096648;27;51374;-62
2021/08/29 03:19:06;;;;;;;;;7.50;5.75;;;;;23.24;45.72;101824.56;5087834;27;51134;-62
2021/08/29 03:21:32;;;;;;;;;7.75;5.50;;;;;23.24;45.56;101815.38;5091714;27;51010;-61
2021/08/29 03:23:58;;;;;;;;;6.00;5.00;;;;;23.22;45.82;101823.91;5096361;27;51209;-62
2021/08/29 03:26:23;;;;;;;;;9.25;7.00;;;;;23.23;45.60;101817.28;5090761;27;51393;-62
2021/08/29 03:28:49;;;;;;;;;7.00;4.50;;;;;23.22;45.60;101810.06;5094684;27;52933;-61
2021/08/29 03:31:15;;;;;;;;;9.25;6.75;;;;;23.21;46.05;101810.28;5096380;27;51531;-60
2021/08/29 03:33:46;;;;;;;;;8.75;7.50;;;;;23.21;45.49;101804.78;5075935;27;52472;-61
2021/08/29 03:36:15;;;;;;;;;7.75;6.50;;;;;23.21;45.45;101807.53;5096026;27;51174;-61
2021/08/29 03:38:41;;;;;;;;;7.00;5.00;;;;;23.19;46.09;101805.00;5095390;27;52007;-61
2021/08/29 03:41:08;;;;;;;;;9.00;6.25;;;;;23.19;46.00;101804.16;5095584;27;50891;-62
2021/08/29 03:43:33;;;;;;;;;5.25;4.00;;;;;23.19;45.59;101799.47;5097725;27;50977;-62
2021/08/29 03:45:59;;;;;;;;;11.00;6.50;;;;;23.19;45.55;101795.84;5096280;27;50965;-61
2021/08/29 03:48:24;;;;;;;;;7.00;4.50;;;;;23.18;45.63;101797.75;5095784;27;51044;-62
2021/08/29 03:50:50;;;;;;;;;5.00;5.00;;;;;23.17;45.53;101796.06;5095772;27;51102;-62
2021/08/29 03:53:16;;;;;;;;;7.00;5.25;;;;;23.17;45.87;101795.22;5089998;27;51124;-62
2021/08/29 03:55:43;;;;;;;;;5.25;5.25;;;;;23.16;45.64;101793.53;5076907;27;51055;-62
2021/08/29 03:58:09;;;;;;;;;6.75;5.50;;;;;23.15;45.94;101791.84;5088478;27;52495;-62
2021/08/29 04:00:34;;;;;;;;;5.25;5.25;;;;;23.16;46.26;101793.53;5096021;27;51457;-61
2021/08/29 04:03:00;;;;;;;;;7.50;6.50;;;;;23.14;45.75;101796.50;5095233;27;51075;-62
2021/08/29 04:05:25;;;;;;;;;7.25;5.00;;;;;23.13;45.90;101793.94;5096237;27;51126;-61
2021/08/29 04:07:54;;;;;;;;;8.00;4.75;;;;;23.13;45.63;101800.31;5077976;27;52654;-61
2021/08/29 04:10:21;;;;;;;;;5.75;5.00;;;;;23.13;45.90;101805.00;5093655;27;51362;-62
2021/08/29 04:12:47;;;;;;;;;9.50;6.50;;;;;23.12;45.88;101806.06;5095582;27;51169;-61
2021/08/29 04:15:12;;;;;;;;;5.00;5.00;;;;;23.10;45.69;101802.69;5087744;27;51120;-61
2021/08/29 04:17:38;;;;;;;;;5.00;5.00;;;;;23.10;46.03;101799.91;5095444;27;51335;-61
2021/08/29 04:20:04;;;;;;;;;4.75;3.00;;;;;23.08;46.16;101807.56;5095722;27;51138;-61
2021/08/29 04:22:30;;;;;;;;;7.75;5.75;;;;;23.07;46.17;101808.66;5095881;27;50992;-61
2021/08/29 04:24:56;;;;;;;;;6.50;5.00;;;;;23.06;46.04;101805.03;5096027;27;50906;-61
2021/08/29 04:27:22;;;;;;;;;7.50;5.50;;;;;23.04;46.13;101799.72;5094600;27;51889;-62
2021/08/29 04:29:47;;;;;;;;;6.25;4.75;;;;;23.03;46.21;101797.16;5077057;27;51125;-61
2021/08/29 04:32:14;;;;;;;;;4.25;4.25;;;;;23.01;45.78;101802.91;5095674;27;51071;-61
2021/08/29 04:34:40;;;;;;;;;5.00;5.00;;;;;23.02;45.97;101806.50;5095973;27;51389;-61
2021/08/29 04:37:06;;;;;;;;;6.00;4.00;;;;;23.01;46.05;101804.81;5095528;27;51145;-61
2021/08/29 04:39:33;;;;;;;;;5.50;5.50;;;;;23.00;46.33;101801.22;5098418;27;51404;-61
2021/08/29 04:41:58;;;;;;;;;6.50;5.00;;;;;22.99;46.37;101802.28;5098573;27;51028;-62
2021/08/29 04:44:24;;;;;;;;;7.00;6.00;;;;;22.98;45.80;101792.28;5098885;27;51050;-61
2021/08/29 04:46:49;;;;;;;;;7.75;6.00;;;;;22.97;46.14;101803.56;5091246;27;52413;-60
2021/08/29 04:49:15;;;;;;;;;6.00;5.75;;;;;22.97;46.04;101798.03;5079839;27;52307;-61
2021/08/29 04:51:40;;;;;;;;;8.25;6.25;;;;;22.95;46.18;101797.41;5087344;27;50997;-61
2021/08/29 04:54:05;;;;;;;;;8.25;6.00;;;;;22.95;46.39;101795.50;5097763;27;50953;-61
2021/08/29 04:56:31;;;;;;;;;7.75;6.00;;;;;22.94;46.23;101802.09;5093382;27;51320;-61
2021/08/29 04:58:56;;;;;;;;;7.25;6.50;;;;;22.93;46.13;101800.41;5079879;27;51124;-61
2021/08/29 05:01:22;;;;;;;;;4.00;4.00;;;;;22.93;46.24;101799.56;5079766;27;51044;-61
2021/08/29 05:03:47;;;;;;;;;6.50;6.00;;;;;22.93;46.41;101810.59;5083438;27;51286;-60
2021/08/29 05:06:14;;;;;;;;;4.25;4.25;;;;;22.92;46.08;101812.47;5097921;27;52611;-62
2021/08/29 05:08:39;;;;;;;;;5.50;5.00;;;;;22.90;46.06;101811.00;5096760;27;51163;-60
2021/08/29 05:11:04;;;;;;;;;8.25;5.50;;;;;22.90;46.13;101809.09;5082613;27;51270;-60
2021/08/29 05:13:30;;;;;;;;;7.25;5.00;;;;;22.89;46.34;101814.84;5087271;27;51020;-61
2021/08/29 05:15:56;;;;;;;;;4.00;4.00;;;;;22.88;45.83;101815.91;5078697;27;51128;-60
2021/08/29 05:18:21;;;;;;;;;4.50;4.50;;;;;22.87;45.85;101814.22;5078664;27;51395;-61
2021/08/29 05:20:46;;;;;;;;;5.00;5.00;;;;;22.86;46.35;101813.38;5083369;27;50947;-61
2021/08/29 05:23:12;;;;;;;;;5.25;4.00;;;;;22.85;46.38;101817.19;5098198;27;50995;-61
2021/08/29 05:25:37;;;;;;;;;5.50;5.50;;;;;22.84;46.44;101815.50;5095040;27;54658;-61
2021/08/29 05:28:03;;;;;;;;;5.25;5.00;;;;;22.84;46.13;101817.41;5080465;27;50978;-62
2021/08/29 05:30:28;;;;;;;;;6.00;6.00;;;;;22.83;45.93;101815.69;5090206;27;51096;-61
2021/08/29 05:32:53;;;;;;;;;7.00;4.00;;;;;22.82;46.04;101816.72;5078545;27;51050;-61
2021/08/29 05:35:19;;;;;;;;;7.25;6.25;;;;;22.81;46.62;101817.78;5079224;27;51068;-62
2021/08/29 05:37:44;;;;;;;;;8.50;6.25;;;;;22.80;46.31;101819.69;5091454;27;52356;-61
2021/08/29 05:40:10;;;;;;;;;6.00;6.00;;;;;22.79;46.63;101812.47;5097971;27;50957;-61
2021/08/29 05:42:35;;;;;;;;;6.00;6.00;;;;;22.77;46.18;101815.47;5087277;27;50968;-61
2021/08/29 05:45:01;;;;;;;;;6.00;6.00;;;;;22.77;46.15;101814.63;5078981;27;51869;-61
2021/08/29 05:47:26;;;;;;;;;7.25;6.25;;;;;22.75;46.59;101817.59;5081255;27;51151;-61
2021/08/29 05:49:51;;;;;;;;;5.50;5.00;;;;;22.75;46.47;101814.84;5088757;27;50910;-61
2021/08/29 05:52:16;;;;;;;;;6.00;5.75;;;;;22.74;46.31;101818.66;5081965;27;51165;-61
2021/08/29 05:54:42;;;;;;;;;9.50;5.75;;;;;22.73;46.10;101808.69;5078587;27;53282;-61
2021/08/29 05:57:08;;;;;;;;;7.00;6.25;;;;;22.74;46.26;101810.38;5077099;27;51124;-61
2021/08/29 05:59:33;;;;;;;;;7.75;7.00;;;;;22.73;46.63;101813.34;5078213;27;51099;-61
2021/08/29 06:01:58;;;;;;;;;3.75;3.50;;;;;22.74;46.58;101810.38;5090880;27;51461;-61
2021/08/29 06:04:23;;;;;;;;;5.75;5.75;;;;;22.73;46.79;101807.84;5095997;27;50975;-62
2021/08/29 06:06:49;;;;;;;;;4.75;1.00;;;;;22.72;46.31;101807.00;5097433;27;51076;-62
2021/08/29 06:09:14;;;;;;;;;6.50;6.00;;;;;22.72;46.20;101808.91;5087407;27;51176;-62
2021/08/29 06:11:39;;;;;;;;;6.00;5.50;;;;;22.70;46.67;101806.31;5087565;27;51128;-61
2021/08/29 06:14:05;;;;;;;;;6.50;5.00;;;;;22.70;46.65;101805.47;5095962;27;50982;-62
2021/08/29 06:16:32;;;;;;;;;8.00;5.25;;;;;22.69;46.44;101809.31;5096892;27;51335;-61
2021/08/29 06:18:57;;;;;;;;;7.00;5.00;;;;;22.69;46.44;101812.91;5083883;27;51154;-62
2021/08/29 06:21:23;;;;;;;;;6.00;5.00;;;;;22.67;46.64;101809.53;5085175;27;51217;-62
2021/08/29 06:23:48;;;;;;;;;5.25;4.00;;;;;22.68;46.40;101821.41;5078417;27;51076;-62
2021/08/29 06:26:13;;;;;;;;;5.50;4.75;;;;;22.67;46.35;101812.28;5080404;27;51113;-61
2021/08/29 06:28:39;;;;;;;;;5.75;5.25;;;;;22.66;46.76;101807.84;5093921;27;51123;-62
2021/08/29 06:31:04;;;;;;;;;5.75;5.00;;;;;22.66;46.66;101812.50;5091630;27;51087;-61
2021/08/29 06:33:29;;;;;;;;;4.50;3.50;;;;;22.66;46.99;101810.59;5078235;27;51069;-62
2021/08/29 06:35:55;;;;;;;;;4.00;4.00;;;;;22.66;46.21;101815.25;5062029;27;51118;-62
2021/08/29 06:38:21;;;;;;;;;5.25;4.50;;;;;22.65;46.45;101810.81;5089012;27;51195;-62
2021/08/29 06:40:47;;;;;;;;;6.75;4.75;;;;;22.65;46.96;101814.41;5082595;27;51226;-61
2021/08/29 06:43:13;;;;;;;;;4.50;4.50;;;;;22.65;46.40;101819.09;5079570;27;51042;-61
2021/08/29 06:45:39;;;;;;;;;4.75;4.25;;;;;22.64;46.51;101812.72;5081791;27;51106;-62
2021/08/29 06:48:04;;;;;;;;;7.50;5.00;;;;;22.65;46.60;101824.63;5093804;27;51034;-62
2021/08/29 06:50:29;;;;;;;;;7.25;6.00;;;;;22.63;46.91;101827.59;5093557;27;51206;-61
2021/08/29 06:52:55;;;;;;;;;6.00;4.50;;;;;22.62;46.47;101836.94;5082265;27;52757;-60
2021/08/29 06:55:20;;;;;;;;;5.75;4.75;;;;;22.63;46.84;101837.78;5089058;27;51284;-62
2021/08/29 06:57:45;;;;;;;;;4.50;4.00;;;;;22.63;47.12;101835.88;5078904;27;51501;-63
2021/08/29 07:00:11;;;;;;;;;4.25;3.75;;;;;22.65;47.67;101832.91;5090509;27;51467;-62
2021/08/29 07:02:36;;;;;;;;;6.00;5.25;;;;;22.66;47.55;101834.59;5077165;27;51013;-61
2021/08/29 07:05:02;;;;;;;;;5.00;4.00;;;;;22.68;48.35;101835.22;5089525;27;51081;-62
2021/08/29 07:07:27;;;;;;;;;7.00;4.25;;;;;22.70;48.62;101817.38;5090662;27;51149;-62
2021/08/29 07:09:53;;;;;;;;;3.50;3.00;;;;;22.74;48.93;101826.09;5078130;27;51183;-61
2021/08/29 07:12:18;;;;;;;;;5.75;4.00;;;;;22.77;48.79;101822.91;5083733;27;58535;-63
2021/08/29 07:14:43;;;;;;;;;5.25;4.25;;;;;22.80;47.91;101832.66;5078847;27;51190;-63
2021/08/29 07:17:09;;;;;;;;;5.25;3.50;;;;;22.80;48.13;101828.00;5083175;27;51160;-61
2021/08/29 07:19:35;;;;;;;;;3.00;3.00;;;;;22.82;47.99;101823.09;5090516;27;51245;-62
2021/08/29 07:22:00;;;;;;;;;2.75;2.75;;;;;22.85;48.42;101828.25;5076103;27;51212;-61
2021/08/29 07:24:25;;;;;;;;;4.75;2.75;;;;;22.86;47.60;101829.09;5076841;27;50914;-61
2021/08/29 07:26:51;;;;;;;;;5.00;4.25;;;;;22.86;48.04;101838.22;5076572;27;51788;-61
2021/08/29 07:29:16;;;;;;;;;4.00;3.75;;;;;22.88;47.67;101824.19;5086899;27;50954;-61
2021/08/29 07:31:42;;;;;;;;;4.50;3.00;;;;;22.88;47.91;101821.44;5095212;27;51590;-61
2021/08/29 07:34:07;;;;;;;;;4.00;4.00;;;;;22.89;47.80;101823.13;5083089;27;51119;-61
2021/08/29 07:36:33;;;;;;;;;6.25;5.50;;;;;22.88;47.21;101827.81;5087527;27;51320;-62
2021/08/29 07:38:58;;;;;;;;;4.50;3.25;;;;;22.90;47.50;101833.13;5078625;27;51184;-62
2021/08/29 07:41:24;;;;;;;;;5.25;4.00;;;;;22.90;47.14;101833.13;5085278;27;50903;-62
2021/08/29 07:43:49;;;;;;;;;3.75;3.75;;;;;22.90;47.43;101831.19;5094536;27;51245;-63
2021/08/29 07:46:14;;;;;;;;;6.75;4.50;;;;;22.91;47.25;101829.28;5095616;27;51287;-63
2021/08/29 07:48:40;;;;;;;;;5.75;4.00;;;;;22.91;47.44;101830.13;5081617;27;51220;-61
2021/08/29 07:51:06;;;;;;;;;6.25;4.25;;;;;22.92;47.24;101837.34;5083768;27;51076;-61
2021/08/29 07:53:31;;;;;;;;;3.75;3.75;;;;;22.93;47.66;101829.94;5095374;27;51191;-64
2021/08/29 07:55:56;;;;;;;;;5.00;3.00;;;;;22.93;47.12;101836.31;5087989;27;51720;-63
2021/08/29 07:58:22;;;;;;;;;4.00;3.00;;;;;22.94;47.76;101837.16;5089761;27;51397;-61
2021/08/29 08:00:47;;;;;;;;;5.00;3.00;;;;;22.95;47.67;101836.94;5091437;27;51614;-62
2021/08/29 08:03:13;;;;;;;;;5.75;5.75;;;;;22.96;47.76;101835.88;5088707;27;51088;-62
2021/08/29 08:05:38;;;;;;;;;4.25;3.75;;;;;22.98;47.97;101838.41;5090095;27;51189;-61
2021/08/29 08:08:04;;;;;;;;;4.00;4.00;;;;;22.98;47.45;101839.28;5094004;27;51041;-61
2021/08/29 08:10:30;;;;;;;;;4.50;4.00;;;;;23.00;47.73;101839.91;5073958;27;51144;-61
2021/08/29 08:12:56;;;;;;;;;5.75;4.00;;;;;23.02;47.52;101840.53;5081473;27;51356;-61
2021/08/29 08:15:21;;;;;;;;;3.75;3.50;;;;;23.03;47.73;101845.00;5083098;27;51406;-62
2021/08/29 08:17:47;;;;;;;;;3.00;3.00;;;;;23.05;47.23;101836.50;5083624;27;51326;-60
2021/08/29 08:20:13;;;;;;;;;4.25;4.00;;;;;23.07;47.29;101839.03;5087601;27;51154;-61
2021/08/29 08:22:39;;;;;;;;;3.25;3.25;;;;;23.06;47.78;101835.44;5089627;27;51422;-62
2021/08/29 08:25:05;;;;;;;;;3.25;3.25;;;;;23.07;47.39;101830.75;5085907;27;51122;-62
2021/08/29 08:27:31;;;;;;;;;6.50;4.25;;;;;23.10;47.80;101835.84;5077660;27;51374;-63
2021/08/29 08:29:56;;;;;;;;;5.50;5.50;;;;;23.14;47.69;101831.59;5078594;27;51007;-62
2021/08/29 08:32:21;;;;;;;;;5.50;4.00;;;;;23.22;47.64;101825.81;5085582;27;50966;-61
2021/08/29 08:34:46;;;;;;;;;5.75;5.00;;;;;23.33;47.30;101827.91;5078728;27;51187;-63
2021/08/29 08:37:12;;;;;;;;;6.75;6.25;;;;;23.48;47.05;101835.94;5092476;27;51210;-61
2021/08/29 08:39:37;;;;;;;;;11.50;7.50;;;;;23.54;46.68;101840.59;5078458;27;53497;-61
2021/08/29 08:42:04;;;;;;;;;10.50;9.00;;;;;23.60;46.76;101837.84;5088396;27;51111;-60
2021/08/29 08:44:30;;;;;;;;;9.75;8.50;;;;;23.66;46.62;101838.03;5063838;28;51023;-62
2021/08/29 08:46:56;;;;;;;;;10.25;10.00;;;;;23.70;46.49;101839.28;5066090;28;51369;-60
2021/08/29 08:49:25;;;;;;;;;10.25;10.00;;;;;23.73;46.56;101838.84;5066240;27;51034;-60
2021/08/29 08:51:53;;;;;;;;;10.00;9.50;;;;;23.75;47.05;101834.78;5076498;27;52272;-61
2021/08/29 08:54:19;;;;;;;;;10.00;10.00;;;;;23.75;46.61;101845.00;5064769;28;51158;-62
2021/08/29 08:56:46;;;;;;;;;7.75;7.75;;;;;23.74;46.09;101844.16;5072530;27;51182;-61
2021/08/29 08:59:11;;;;;;;;;8.50;6.25;;;;;23.73;46.34;101838.84;5072171;28;51910;-61
2021/08/29 09:01:36;;;;;;;;;8.00;6.75;;;;;23.71;46.38;101835.44;5068913;28;51086;-61
2021/08/29 09:04:02;;;;;;;;;10.25;6.25;;;;;23.70;46.43;101834.59;5070893;27;51053;-62
2021/08/29 09:06:28;;;;;;;;;6.75;5.25;;;;;23.71;46.48;101838.22;5067207;28;52297;-62
2021/08/29 09:08:54;;;;;;;;;5.00;5.00;;;;;23.72;46.32;101845.44;5069028;27;52041;-61
2021/08/29 09:11:19;;;;;;;;;9.25;9.00;;;;;23.71;46.39;101835.44;5073707;28;51120;-61
2021/08/29 09:13:47;;;;;;;;;6.00;6.00;;;;;23.70;46.28;101836.53;5077996;27;50967;-62
2021/08/29 09:16:18;;;;;;;;;9.50;5.50;;;;;23.68;46.36;101833.97;5076616;27;51247;-61
2021/08/29 09:18:47;;;;;;;;;5.75;4.25;;;;;23.68;46.56;101822.91;5076485;27;52375;-61
2021/08/29 09:21:33;;;;;;;;;4.50;4.25;;;;;23.66;46.45;101827.81;5067201;28;51619;-65
2021/08/29 09:24:06;;;;;;;;;4.50;3.75;;;;;23.66;46.60;101826.97;5071131;27;51014;-61
2021/08/29 09:26:31;;;;;;;;;5.00;5.00;;;;;23.65;46.70;101819.72;5075309;27;51079;-61
2021/08/29 09:28:59;;;;;;;;;4.25;4.00;;;;;23.65;46.13;101833.53;5074363;27;51131;-62
2021/08/29 09:31:42;;;;;;;;;6.00;4.00;;;;;23.65;46.62;101822.47;5071659;27;51310;-61
2021/08/29 09:34:07;;;;;;;;;3.00;2.00;;;;;23.65;46.28;101831.63;5077472;28;51099;-62
2021/08/29 09:36:33;;;;;;;;;4.25;3.50;;;;;23.65;45.91;101828.00;5076748;28;51119;-62
2021/08/29 09:39:16;;;;;;;;;7.75;4.00;;;;;23.65;46.51;101830.78;5065366;28;51091;-62
2021/08/29 09:41:43;;;;;;;;;4.75;3.50;;;;;23.64;46.01;101820.78;5066003;27;51206;-58
2021/08/29 09:44:10;;;;;;;;;8.50;4.00;;;;;23.63;46.55;101821.88;5089308;27;51306;-60
2021/08/29 09:46:53;;;;;;;;;5.75;4.50;;;;;23.63;46.69;101825.47;5087366;27;52350;-59
2021/08/29 09:49:26;;;;;;;;;3.00;3.00;;;;;23.63;46.86;101821.88;5080919;27;51846;-61
2021/08/29 09:51:52;;;;;;;;;4.00;4.00;;;;;23.64;46.47;101820.78;5093697;27;51667;-59
2021/08/29 09:54:31;;;;;;;;;5.00;3.75;;;;;23.64;46.77;101818.03;5079128;27;51161;-60
2021/08/29 09:56:58;;;;;;;;;7.75;4.75;;;;;23.65;46.91;101816.94;5093274;27;51221;-59
2021/08/29 09:59:48;;;;;;;;;4.50;3.25;;;;;23.64;46.51;101820.78;5095049;27;51267;-59
2021/08/29 10:02:23;;;;;;;;;4.00;4.00;;;;;23.63;47.01;101819.09;5088171;27;51073;-58
2021/08/29 10:05:09;;;;;;;;;4.50;4.00;;;;;23.63;46.55;101822.72;5097336;27;51183;-59
2021/08/29 10:07:35;;;;;;;;;5.50;3.25;;;;;23.60;46.80;101815.72;5071163;27;51089;-59
2021/08/29 10:10:20;;;;;;;;;5.00;5.00;;;;;23.61;46.72;101817.41;5090008;27;51895;-59
2021/08/29 10:12:47;;;;;;;;;6.25;5.25;;;;;23.59;46.78;101814.00;5094036;27;51197;-59
2021/08/29 10:15:14;;;;;;;;;5.75;4.25;;;;;23.58;46.75;101826.16;5090288;27;51049;-59
2021/08/29 10:17:40;;;;;;;;;4.00;3.00;;;;;23.57;46.41;101818.88;5093851;27;51064;-59
2021/08/29 10:20:06;;;;;;;;;6.75;3.00;;;;;23.56;46.13;101814.44;5087215;27;51059;-59
2021/08/29 10:22:35;;;;;;;;;6.00;4.25;;;;;23.57;46.29;101818.88;5095766;27;51196;-59
2021/08/29 10:25:02;;;;;;;;;4.00;3.00;;;;;23.55;46.44;101821.03;5096536;27;51047;-59
2021/08/29 10:27:30;;;;;;;;;4.50;4.50;;;;;23.55;46.33;101821.03;5081500;27;51128;-60
2021/08/29 10:29:59;;;;;;;;;6.00;5.00;;;;;23.53;46.19;101806.56;5087348;27;52524;-59
2021/08/29 10:32:33;;;;;;;;;6.00;4.75;;;;;23.54;46.55;101811.00;5096385;27;51251;-59
2021/08/29 10:35:01;;;;;;;;;4.75;4.00;;;;;23.54;46.54;101808.25;5098816;27;51045;-58
2021/08/29 10:37:27;;;;;;;;;7.00;5.75;;;;;23.54;46.32;101813.78;5096294;27;51299;-58
2021/08/29 10:39:52;;;;;;;;;8.75;5.00;;;;;23.55;46.76;101815.50;5092087;27;51057;-60
2021/08/29 10:42:20;;;;;;;;;8.50;7.75;;;;;23.56;47.06;101814.44;5062577;28;51167;-60
2021/08/29 10:44:47;;;;;;;;;15.00;11.00;;;;;23.56;47.92;101816.34;5073738;27;51181;-60
2021/08/29 10:47:16;;;;;;;;;9.00;9.00;;;;;23.58;48.07;101815.09;5091383;27;51301;-60
2021/08/29 10:49:42;;;;;;;;;13.75;10.25;;;;;23.60;48.23;101807.41;5093449;27;51757;-59
2021/08/29 10:52:08;;;;;;;;;16.75;11.50;;;;;23.61;48.19;101809.09;5091120;27;51255;-60
2021/08/29 10:54:49;;;;;;;;;14.50;11.25;;;;;23.61;47.82;101800.81;5096406;27;51220;-59
2021/08/29 10:58:00;;;;;;;;;8.75;7.50;;;;;23.63;47.61;101808.88;5088291;27;51432;-60
2021/08/29 11:00:26;;;;;;;;;8.50;8.25;;;;;23.63;47.90;101806.13;5024764;28;51262;-59
2021/08/29 11:02:52;;;;;;;;;10.75;7.25;;;;;23.63;47.87;101800.59;5012862;28;51294;-60
2021/08/29 11:05:27;;;;;;;;;8.00;7.75;;;;;23.64;47.76;101799.50;5060148;27;51366;-60
2021/08/29 11:07:52;;;;;;;;;10.00;8.00;;;;;23.64;47.55;101791.22;5088159;27;51446;-59
2021/08/29 11:10:53;;;;;;;;;8.00;8.00;;;;;23.64;47.96;101793.13;5093808;27;51128;-61
2021/08/29 11:13:27;;;;;;;;;8.75;6.50;;;;;23.64;47.61;101795.91;5010020;28;51107;-60
2021/08/29 11:16:14;;;;;;;;;7.75;7.75;;;;;23.64;47.70;101790.38;5082096;27;50981;-59
2021/08/29 11:19:01;;;;;;;;;8.25;7.75;;;;;23.64;47.93;101784.84;5096124;27;51183;-59
2021/08/29 11:21:32;;;;;;;;;8.00;8.00;;;;;23.67;47.82;101784.41;5090658;27;51819;-59
2021/08/29 11:23:57;;;;;;;;;6.00;5.50;;;;;23.68;47.74;101783.34;5092374;27;51151;-59
2021/08/29 11:26:30;;;;;;;;;12.00;8.50;;;;;23.68;47.82;101788.88;5084411;27;51257;-60